createdAt,value
2018-11-13T00:00:34.025Z,111.92
2018-11-13T00:03:27.671Z,114.05
2018-11-13T00:06:21.462Z,113.12
2018-11-13T00:09:15.010Z,117.33
2018-11-13T00:12:09.183Z,111.32
2018-11-13T00:15:02.534Z,114.90
2018-11-13T00:17:56.450Z,113.32
2018-11-13T00:20:50.351Z,110.72
2018-11-13T00:23:44.523Z,110.28
2018-11-13T00:26:41.479Z,109.65
2018-11-13T00:29:32.311Z,110.88
2018-11-13T00:32:26.130Z,110.20
2018-11-13T00:35:20.497Z,109.52
2018-11-13T00:38:22.381Z,110.88
2018-11-13T00:41:13.300Z,112.80
2018-11-13T00:44:07.129Z,112.10
2018-11-13T00:47:00.977Z,112.57
2018-11-13T00:49:54.822Z,111.28
2018-11-13T00:52:49.845Z,109.07
2018-11-13T00:55:43.441Z,111.30
2018-11-13T00:58:37.110Z,110.83
2018-11-13T01:01:31.023Z,107.58
2018-11-13T01:04:24.902Z,112.30
2018-11-13T01:07:18.497Z,113.20
2018-11-13T01:10:16.214Z,114.10
2018-11-13T01:13:09.843Z,112.22
2018-11-13T01:16:03.727Z,113.77
2018-11-13T01:18:57.514Z,112.55
2018-11-13T01:21:51.360Z,112.72
2018-11-13T01:24:45.017Z,114.25
2018-11-13T01:27:44.096Z,114.05
2018-11-13T01:30:38.614Z,119.17
2018-11-13T01:33:33.101Z,116.05
2018-11-13T01:36:27.026Z,117.42
2018-11-13T01:39:24.107Z,116.28
2018-11-13T01:42:15.099Z,118.45
2018-11-13T01:45:09.526Z,118.13
2018-11-13T01:48:03.204Z,117.30
2018-11-13T01:50:57.562Z,117.10
2018-11-13T01:53:52.432Z,118.02
2018-11-13T01:56:46.037Z,117.35
2018-11-13T01:59:39.581Z,117.03
2018-11-13T02:02:34.117Z,117.57
2018-11-13T02:05:30.957Z,114.50
2018-11-13T02:08:25.230Z,116.80
2018-11-13T02:11:18.757Z,116.65
2018-11-13T02:14:13.276Z,118.17
2018-11-13T02:17:07.404Z,115.47
2018-11-13T02:20:01.594Z,116.22
2018-11-13T02:22:56.362Z,115.12
2018-11-13T02:25:53.286Z,114.67
2018-11-13T02:28:46.702Z,113.95
2018-11-13T02:31:40.839Z,112.72
2018-11-13T02:34:35.049Z,113.83
2018-11-13T02:37:28.411Z,112.52
2018-11-13T02:40:25.664Z,114.20
2018-11-13T02:43:19.773Z,112.97
2018-11-13T02:46:17.291Z,114.12
2018-11-13T02:49:13.890Z,108.22
2018-11-13T02:52:07.997Z,110.00
2018-11-13T02:55:03.655Z,113.10
2018-11-13T02:57:57.200Z,109.87
2018-11-13T03:00:51.190Z,112.03
2018-11-13T03:03:48.392Z,108.97
2018-11-13T03:06:42.657Z,109.07
2018-11-13T03:09:37.058Z,109.90
2018-11-13T03:12:31.216Z,104.27
2018-11-13T03:15:25.974Z,105.95
2018-11-13T03:18:20.923Z,107.40
2018-11-13T03:21:14.705Z,105.97
2018-11-13T03:24:09.562Z,106.22
2018-11-13T03:27:03.657Z,105.72
2018-11-13T03:29:58.316Z,105.25
2018-11-13T03:32:52.965Z,105.95
2018-11-13T03:35:47.186Z,106.32
2018-11-13T03:38:41.685Z,101.55
2018-11-13T03:41:35.711Z,103.05
2018-11-13T03:44:29.836Z,101.60
2018-11-13T03:47:24.089Z,103.22
2018-11-13T03:50:19.396Z,100.90
2018-11-13T03:53:13.561Z,100.27
2018-11-13T03:56:08.822Z,100.35
2018-11-13T03:59:03.049Z,100.22
2018-11-13T04:01:58.017Z,98.45
2018-11-13T04:04:51.664Z,98.80
2018-11-13T04:07:47.088Z,97.70
2018-11-13T04:10:40.801Z,97.15
2018-11-13T04:13:40.722Z,96.30
2018-11-13T04:16:34.789Z,94.52
2018-11-13T04:19:28.521Z,96.72
2018-11-13T04:22:22.625Z,97.45
2018-11-13T04:25:16.718Z,95.90
2018-11-13T04:33:15.856Z,96.92
2018-11-13T04:36:10.401Z,95.00
2018-11-13T04:39:04.622Z,91.97
2018-11-13T04:41:58.717Z,93.10
2018-11-13T04:44:52.451Z,89.77
2018-11-13T04:47:51.268Z,90.17
2018-11-13T04:50:42.053Z,89.28
2018-11-13T04:53:38.780Z,88.90
2018-11-13T04:56:33.144Z,92.53
2018-11-13T04:59:27.254Z,92.78
2018-11-13T05:02:22.099Z,92.82
2018-11-13T05:05:17.015Z,94.62
2018-11-13T05:12:52.164Z,93.15
2018-11-13T05:15:54.374Z,93.30
2018-11-13T05:18:49.848Z,92.88
2018-11-13T05:21:45.598Z,87.22
2018-11-13T05:24:40.872Z,87.30
2018-11-13T05:27:35.085Z,83.47
2018-11-13T05:30:29.852Z,84.67
2018-11-13T05:33:25.870Z,81.05
2018-11-13T05:36:24.844Z,82.85
2018-11-13T05:39:20.493Z,78.40
2018-11-13T05:42:17.523Z,79.53
2018-11-13T05:45:14.860Z,74.00
2018-11-13T05:48:10.712Z,75.05
2018-11-13T05:51:06.083Z,75.12
2018-11-13T05:54:02.919Z,71.35
2018-11-13T05:56:56.992Z,70.42
2018-11-13T05:59:51.288Z,69.47
2018-11-13T06:02:48.668Z,69.27
2018-11-13T06:05:42.808Z,67.82
2018-11-13T06:08:37.965Z,68.05
2018-11-13T06:11:35.125Z,64.50
2018-11-13T06:14:30.616Z,64.05
2018-11-13T06:17:24.062Z,61.77
2018-11-13T06:20:18.459Z,62.20
2018-11-13T06:23:12.359Z,60.38
2018-11-13T06:26:06.056Z,57.60
2018-11-13T06:29:00.070Z,57.80
2018-11-13T06:31:54.975Z,58.80
2018-11-13T06:34:49.427Z,57.75
2018-11-13T06:37:43.828Z,55.95
2018-11-13T06:40:37.785Z,56.18
2018-11-13T06:43:31.898Z,54.40
2018-11-13T06:46:25.806Z,52.95
2018-11-13T06:49:20.677Z,53.63
2018-11-13T06:52:15.332Z,53.38
2018-11-13T06:55:30.381Z,50.10
2018-11-13T06:58:25.352Z,48.35
2018-11-13T07:01:21.886Z,49.08
2018-11-13T07:04:18.274Z,48.30
2018-11-13T07:07:14.311Z,47.80
2018-11-13T07:10:10.870Z,44.35
2018-11-13T07:13:05.731Z,44.70
2018-11-13T07:16:00.530Z,46.02
2018-11-13T07:18:55.194Z,44.90
2018-11-13T07:21:50.245Z,45.43
2018-11-13T07:24:44.562Z,46.28
2018-11-13T07:27:39.837Z,43.95
2018-11-13T07:30:33.334Z,44.93
2018-11-13T07:33:27.592Z,42.50
2018-11-13T07:36:21.570Z,43.75
2018-11-13T07:39:15.979Z,44.30
2018-11-13T07:42:12.945Z,44.05
2018-11-13T07:45:07.094Z,43.20
2018-11-13T07:48:03.185Z,41.95
2018-11-13T07:50:57.789Z,42.30
2018-11-13T07:53:52.246Z,42.40
2018-11-13T07:56:56.335Z,41.85
2018-11-13T07:59:50.960Z,41.02
2018-11-13T08:02:45.295Z,39.40
2018-11-13T08:05:39.938Z,40.83
2018-11-13T08:08:36.028Z,40.05
2018-11-13T08:11:37.989Z,39.53
2018-11-13T08:14:31.859Z,37.53
2018-11-13T08:17:26.128Z,36.85
2018-11-13T08:20:22.624Z,38.75
2018-11-13T08:23:16.584Z,38.73
2018-11-13T08:26:10.781Z,37.55
2018-11-13T08:29:05.335Z,36.88
2018-11-13T08:31:59.622Z,36.40
2018-11-13T08:34:55.708Z,36.30
2018-11-13T08:37:49.661Z,35.88
2018-11-13T08:40:43.376Z,34.55
2018-11-13T08:43:37.326Z,35.78
2018-11-13T08:46:31.481Z,35.33
2018-11-13T08:49:26.479Z,36.17
2018-11-13T08:52:20.922Z,34.98
2018-11-13T08:55:14.921Z,37.45
2018-11-13T08:58:10.605Z,37.13
2018-11-13T09:01:05.121Z,36.93
2018-11-13T09:04:00.731Z,36.28
2018-11-13T09:06:55.443Z,36.35
2018-11-13T09:09:50.160Z,37.73
2018-11-13T09:12:44.984Z,37.98
2018-11-13T09:15:39.021Z,39.08
2018-11-13T09:18:32.566Z,38.05
2018-11-13T09:21:26.267Z,39.23
2018-11-13T09:24:21.705Z,37.30
2018-11-13T09:27:24.092Z,38.13
2018-11-13T09:30:23.522Z,37.75
2018-11-13T09:33:17.972Z,38.08
2018-11-13T09:36:12.051Z,36.90
2018-11-13T09:39:09.471Z,38.15
2018-11-13T09:41:59.705Z,38.28
2018-11-13T09:44:59.107Z,38.48
2018-11-13T09:47:59.870Z,38.15
2018-11-13T09:51:02.992Z,39.95
2018-11-13T09:53:57.062Z,39.23
2018-11-13T09:56:56.057Z,39.20
2018-11-13T10:03:06.346Z,38.85
2018-11-13T10:06:01.237Z,39.38
2018-11-13T10:08:56.344Z,38.78
2018-11-13T10:11:54.967Z,40.70
2018-11-13T10:14:59.684Z,39.53
2018-11-13T10:18:04.383Z,40.63
2018-11-13T10:21:10.303Z,39.27
2018-11-13T10:24:14.766Z,38.70
2018-11-13T10:27:18.580Z,37.23
2018-11-13T10:30:19.809Z,38.23
2018-11-13T10:33:17.150Z,38.30
2018-11-13T10:36:12.372Z,37.90
2018-11-13T10:39:28.409Z,36.73
2018-11-13T10:42:26.640Z,37.05
2018-11-13T10:45:37.028Z,38.13
2018-11-13T10:48:37.919Z,38.05
2018-11-13T10:51:46.937Z,37.67
2018-11-13T10:54:51.908Z,36.33
2018-11-13T10:57:52.714Z,34.40
2018-11-13T11:01:21.300Z,35.90
2018-11-13T11:04:32.889Z,34.50
2018-11-13T11:15:02.833Z,33.98
2018-11-13T11:18:12.767Z,32.93
2018-11-13T11:21:22.736Z,33.63
2018-11-13T11:24:28.160Z,32.23
2018-11-13T11:27:23.007Z,31.55
2018-11-13T11:30:20.032Z,32.05
2018-11-13T11:33:23.916Z,30.40
2018-11-13T11:36:27.826Z,31.70
2018-11-13T11:39:32.787Z,32.25
2018-11-13T11:42:29.690Z,31.52
2018-11-13T11:45:34.330Z,29.35
2018-11-13T11:48:39.876Z,29.37
2018-11-13T11:51:36.561Z,30.65
2018-11-13T11:54:31.953Z,29.25
2018-11-13T11:57:27.265Z,28.98
2018-11-13T12:00:40.693Z,29.52
2018-11-13T12:03:37.983Z,28.57
2018-11-13T12:06:34.168Z,28.50
2018-11-13T12:09:29.659Z,30.00
2018-11-13T12:12:24.981Z,29.27
2018-11-13T12:15:22.089Z,29.70
2018-11-13T12:18:19.147Z,29.72
2018-11-13T12:21:14.678Z,30.23
2018-11-13T12:24:10.616Z,29.95
2018-11-13T12:27:05.532Z,28.60
2018-11-13T12:36:16.928Z,27.87
2018-11-13T12:39:13.743Z,27.27
2018-11-13T12:42:08.569Z,27.05
2018-11-13T12:45:04.052Z,28.05
2018-11-13T12:47:59.386Z,28.10
2018-11-13T12:51:10.131Z,30.10
2018-11-13T12:54:10.644Z,30.45
2018-11-13T12:57:07.529Z,28.95
2018-11-13T13:00:04.329Z,30.10
2018-11-13T13:03:08.969Z,28.15
2018-11-13T13:06:04.959Z,28.57
2018-11-13T13:09:00.207Z,28.30
2018-11-13T13:11:55.145Z,30.23
2018-11-13T13:14:49.735Z,29.72
2018-11-13T13:17:44.506Z,28.73
2018-11-13T13:20:51.932Z,27.70
2018-11-13T13:23:46.530Z,29.92
2018-11-13T13:26:41.147Z,30.45
2018-11-13T13:29:36.433Z,29.35
2018-11-13T13:32:38.264Z,29.15
2018-11-13T13:36:00.937Z,31.17
2018-11-13T13:38:55.167Z,30.02
2018-11-13T13:41:48.630Z,30.02
2018-11-13T13:44:42.705Z,32.38
2018-11-13T13:47:36.341Z,30.15
2018-11-13T13:50:30.318Z,33.20
2018-11-13T13:53:25.583Z,31.57
2018-11-13T13:56:20.512Z,31.48
2018-11-13T13:59:14.166Z,33.00
2018-11-13T14:02:07.983Z,33.35
2018-11-13T14:05:01.819Z,34.78
2018-11-13T14:07:55.228Z,33.50
2018-11-13T14:10:49.800Z,33.50
2018-11-13T14:13:43.640Z,34.18
2018-11-13T14:16:37.056Z,34.23
2018-11-13T14:19:34.364Z,35.28
2018-11-13T14:22:23.881Z,34.48
2018-11-13T14:25:18.284Z,34.92
2018-11-13T14:28:12.627Z,35.35
2018-11-13T14:31:06.503Z,35.15
2018-11-13T14:34:00.607Z,35.83
2018-11-13T14:36:54.284Z,35.10
2018-11-13T14:39:47.744Z,35.92
2018-11-13T14:42:41.693Z,34.27
2018-11-13T14:45:35.728Z,35.70
2018-11-13T14:48:29.411Z,37.33
2018-11-13T14:51:23.550Z,34.33
2018-11-13T14:54:17.431Z,35.68
2018-11-13T14:57:11.945Z,36.08
2018-11-13T15:00:05.667Z,35.63
2018-11-13T15:03:00.255Z,35.98
2018-11-13T15:05:54.305Z,35.98
2018-11-13T15:08:48.405Z,36.48
2018-11-13T15:14:39.116Z,38.25
2018-11-13T15:17:33.100Z,37.10
2018-11-13T15:20:26.709Z,35.38
2018-11-13T15:23:20.499Z,39.00
2018-11-13T15:26:14.099Z,38.00
2018-11-13T15:29:10.389Z,36.90
2018-11-13T15:32:04.562Z,38.20
2018-11-13T15:34:59.021Z,37.42
2018-11-13T15:37:52.377Z,36.55
2018-11-13T15:40:45.942Z,36.80
2018-11-13T15:43:39.806Z,37.75
2018-11-13T15:46:33.372Z,37.38
2018-11-13T15:49:26.972Z,37.75
2018-11-13T15:52:21.175Z,36.93
2018-11-13T15:55:15.653Z,37.55
2018-11-13T15:58:10.262Z,36.45
2018-11-13T16:01:04.503Z,39.30
2018-11-13T16:03:58.698Z,37.78
2018-11-13T16:06:52.377Z,38.80
2018-11-13T16:09:47.185Z,38.17
2018-11-13T16:12:42.973Z,37.98
2018-11-13T16:15:37.013Z,37.08
2018-11-13T16:18:32.451Z,37.30
2018-11-13T16:21:26.136Z,36.95
2018-11-13T16:24:19.832Z,38.10
2018-11-13T16:27:14.039Z,38.55
2018-11-13T16:30:08.190Z,38.80
2018-11-13T16:33:03.407Z,38.53
2018-11-13T16:35:57.896Z,38.25
2018-11-13T16:38:51.357Z,36.00
2018-11-13T16:41:45.203Z,37.85
2018-11-13T16:44:38.842Z,37.63
2018-11-13T16:47:32.666Z,38.67
2018-11-13T16:50:50.897Z,38.85
2018-11-13T16:54:01.319Z,37.80
2018-11-13T16:56:58.734Z,39.15
2018-11-13T16:59:52.400Z,40.43
2018-11-13T17:02:46.079Z,40.80
2018-11-13T17:05:39.912Z,40.17
2018-11-13T17:08:33.465Z,40.10
2018-11-13T17:11:27.376Z,39.70
2018-11-13T17:14:21.642Z,39.60
2018-11-13T17:17:18.259Z,40.30
2018-11-13T17:20:13.709Z,41.42
2018-11-13T17:23:07.765Z,40.65
2018-11-13T17:26:02.014Z,42.20
2018-11-13T17:28:56.980Z,42.00
2018-11-13T17:31:50.742Z,42.58
2018-11-13T17:34:45.003Z,41.65
2018-11-13T17:37:38.953Z,45.08
2018-11-13T17:40:36.730Z,43.73
2018-11-13T17:43:30.747Z,44.13
2018-11-13T17:46:24.102Z,46.80
2018-11-13T17:49:18.083Z,49.80
2018-11-13T17:52:11.750Z,48.40
2018-11-13T17:55:05.603Z,51.13
2018-11-13T17:58:05.003Z,52.15
2018-11-13T18:00:58.858Z,50.38
2018-11-13T18:03:52.678Z,50.43
2018-11-13T18:06:46.324Z,52.83
2018-11-13T18:09:39.983Z,54.90
2018-11-13T18:12:34.025Z,53.00
2018-11-13T18:15:29.168Z,55.25
2018-11-13T18:18:22.743Z,55.20
2018-11-13T18:21:16.363Z,58.38
2018-11-13T18:24:10.766Z,57.85
2018-11-13T18:27:04.922Z,58.25
2018-11-13T18:29:58.500Z,58.45
2018-11-13T18:32:52.365Z,58.50
2018-11-13T18:35:46.302Z,57.85
2018-11-13T18:38:40.046Z,59.98
2018-11-13T18:41:33.499Z,60.17
2018-11-13T18:44:27.283Z,59.55
2018-11-13T18:47:20.830Z,59.58
2018-11-13T18:50:26.589Z,58.65
2018-11-13T18:53:20.576Z,58.25
2018-11-13T18:56:13.879Z,59.05
2018-11-13T18:59:07.826Z,60.67
2018-11-13T19:02:01.264Z,59.90
2018-11-13T19:04:55.803Z,60.60
2018-11-13T19:07:49.638Z,62.23
2018-11-13T19:10:44.813Z,62.08
2018-11-13T19:13:38.358Z,60.40
2018-11-13T19:16:31.999Z,61.53
2018-11-13T19:19:25.451Z,61.08
2018-11-13T19:22:19.566Z,60.85
2018-11-13T19:25:17.742Z,59.70
2018-11-13T19:28:11.680Z,65.08
2018-11-13T19:31:05.453Z,63.55
2018-11-13T19:33:58.976Z,62.90
2018-11-13T19:36:52.501Z,64.77
2018-11-13T19:39:46.564Z,63.20
2018-11-13T19:42:40.204Z,66.12
2018-11-13T19:45:34.126Z,66.97
2018-11-13T19:48:28.214Z,70.03
2018-11-13T19:51:22.200Z,69.20
2018-11-13T19:54:16.007Z,69.05
2018-11-13T19:57:09.506Z,71.35
2018-11-13T20:00:04.590Z,70.72
2018-11-13T20:03:05.569Z,69.80
2018-11-13T20:05:59.817Z,70.03
2018-11-13T20:08:54.439Z,68.83
2018-11-13T20:11:48.503Z,70.20
2018-11-13T20:14:41.887Z,68.40
2018-11-13T20:17:35.500Z,68.07
2018-11-13T20:20:30.281Z,70.62
2018-11-13T20:23:24.015Z,68.45
2018-11-13T20:26:17.599Z,68.70
2018-11-13T20:29:11.485Z,67.10
2018-11-13T20:32:04.790Z,65.00
2018-11-13T20:34:58.658Z,67.03
2018-11-13T20:37:53.383Z,64.77
2018-11-13T20:40:48.605Z,66.47
2018-11-13T20:43:43.119Z,66.70
2018-11-13T20:46:36.930Z,66.07
2018-11-13T20:49:31.241Z,65.03
2018-11-13T20:52:25.148Z,64.82
2018-11-13T20:55:19.333Z,62.40
2018-11-13T20:58:13.775Z,65.28
2018-11-13T21:01:08.518Z,63.28
2018-11-13T21:04:05.524Z,63.08
2018-11-13T21:06:59.146Z,61.85
2018-11-13T21:09:56.052Z,63.02
2018-11-13T21:12:50.628Z,61.88
2018-11-13T21:15:45.122Z,61.55
2018-11-13T21:18:41.901Z,63.50
2018-11-13T21:21:32.481Z,62.13
2018-11-13T21:24:26.488Z,61.88
2018-11-13T21:27:19.996Z,63.55
2018-11-13T21:30:18.748Z,61.60
2018-11-13T21:33:12.626Z,60.67
2018-11-13T21:36:06.044Z,60.90
2018-11-13T21:39:02.747Z,63.63
2018-11-13T21:41:59.003Z,63.28
2018-11-13T21:44:53.302Z,62.20
2018-11-13T21:47:43.857Z,60.95
2018-11-13T21:50:37.728Z,63.05
2018-11-13T21:53:31.246Z,61.15
2018-11-13T21:56:32.201Z,62.85
2018-11-13T21:59:26.057Z,61.60
2018-11-13T22:02:23.486Z,61.60
2018-11-13T22:05:19.847Z,61.45
2018-11-13T22:08:14.169Z,59.67
2018-11-13T22:11:07.750Z,59.98
2018-11-13T22:14:01.310Z,62.20
2018-11-13T22:16:57.688Z,60.95
2018-11-13T22:19:51.587Z,61.33
2018-11-13T22:22:45.005Z,61.15
2018-11-13T22:25:38.659Z,62.48
2018-11-13T22:28:32.045Z,60.03
2018-11-13T22:31:25.536Z,61.95
2018-11-13T22:34:18.787Z,61.90
2018-11-13T22:37:12.322Z,63.95
2018-11-13T22:40:06.236Z,63.68
2018-11-13T22:43:00.179Z,67.53
2018-11-13T22:45:54.116Z,65.00
2018-11-13T22:48:47.558Z,68.25
2018-11-13T22:51:41.119Z,69.17
2018-11-13T22:54:34.506Z,76.05
2018-11-13T22:57:28.322Z,77.97
2018-11-13T23:00:41.852Z,79.32
2018-11-13T23:03:35.344Z,79.32
2018-11-13T23:06:28.847Z,83.65
2018-11-13T23:09:23.183Z,83.80
2018-11-13T23:12:16.902Z,87.53
2018-11-13T23:15:12.633Z,86.78
2018-11-13T23:18:06.470Z,91.50
2018-11-13T23:21:00.059Z,88.25
2018-11-13T23:23:54.559Z,86.60
2018-11-13T23:26:47.830Z,85.77
2018-11-13T23:29:41.472Z,90.03
2018-11-13T23:32:34.747Z,93.00
2018-11-13T23:35:28.532Z,89.55
2018-11-13T23:38:22.423Z,94.05
2018-11-13T23:41:16.237Z,95.38
2018-11-13T23:44:12.217Z,95.42
2018-11-13T23:47:11.296Z,94.30
2018-11-13T23:50:05.503Z,97.45
2018-11-13T23:52:59.181Z,97.35
2018-11-13T23:55:52.788Z,101.55
2018-11-13T23:58:46.133Z,98.67
